Time;durP1;ratioP1;P1;durP2;ratioP2;P2;SDS_P1;SDS_P2;PMS_P1;PMS_P2;Temp;Humidity;BMP_temperature;BMP_pressure;BME280_temperature;BME280_humidity;BME280_pressure;Samples;Min_cycle;Max_cycle;Signal;HPM_P1;HPM_P2
2023/07/14 00:00:39;;;;;;;13.60;5.10;;;18.60;99.90;;;;;;4938788;28;20213;-88
2023/07/14 00:03:06;;;;;;;16.13;5.25;;;18.60;99.90;;;;;;4939023;29;20211;-86
2023/07/14 00:05:38;;;;;;;16.58;4.85;;;18.50;99.90;;;;;;4922242;29;20207;-88
2023/07/14 00:08:15;;;;;;;12.82;5.35;;;18.40;99.90;;;;;;4922832;29;20184;-86
2023/07/14 00:10:41;;;;;;;11.10;5.60;;;18.40;99.90;;;;;;4936365;29;20223;-77
2023/07/14 00:13:10;;;;;;;13.27;5.13;;;18.40;99.90;;;;;;4935107;29;20256;-82
2023/07/14 00:15:37;;;;;;;8.73;4.90;;;18.40;99.90;;;;;;4935343;29;20187;-82
2023/07/14 00:18:30;;;;;;;14.63;5.90;;;18.30;99.90;;;;;;4919700;29;20202;-82
2023/07/14 00:20:56;;;;;;;13.55;5.28;;;18.30;99.90;;;;;;4933884;28;20199;-79
2023/07/14 00:23:22;;;;;;;11.23;5.57;;;18.30;99.90;;;;;;4935608;29;20210;-79
2023/07/14 00:25:48;;;;;;;13.38;5.70;;;18.30;99.90;;;;;;4936581;29;20183;-78
2023/07/14 00:28:17;;;;;;;10.00;5.85;;;18.20;99.90;;;;;;4936705;29;20600;-80
2023/07/14 00:30:43;;;;;;;12.15;5.90;;;18.20;99.90;;;;;;4935490;29;20210;-78
2023/07/14 00:33:15;;;;;;;11.25;5.85;;;18.20;99.90;;;;;;4936558;29;20195;-78
2023/07/14 00:35:41;;;;;;;8.05;4.97;;;18.10;99.90;;;;;;4919518;29;20211;-78
2023/07/14 00:38:08;;;;;;;14.95;5.82;;;18.10;99.90;;;;;;4936923;29;20193;-82
2023/07/14 00:40:42;;;;;;;10.95;6.07;;;18.10;99.90;;;;;;4936737;29;20286;-78
2023/07/14 00:43:26;;;;;;;11.02;5.70;;;18.10;99.90;;;;;;4935795;29;20218;-79
2023/07/14 00:45:55;;;;;;;12.95;5.72;;;18.10;99.90;;;;;;4936357;29;20284;-78
2023/07/14 00:48:25;;;;;;;13.75;6.40;;;18.10;99.90;;;;;;4935225;29;20210;-78
2023/07/14 00:50:53;;;;;;;11.90;6.03;;;18.00;99.90;;;;;;4937022;29;20179;-78
2023/07/14 00:53:21;;;;;;;14.02;5.97;;;18.10;99.90;;;;;;4920464;29;20203;-80
2023/07/14 00:55:50;;;;;;;12.20;6.32;;;18.10;99.90;;;;;;4937011;29;20330;-79
2023/07/14 00:58:20;;;;;;;12.68;6.53;;;18.00;99.90;;;;;;4921976;29;20600;-78
2023/07/14 01:01:03;;;;;;;13.32;7.25;;;18.00;99.90;;;;;;4936161;28;20179;-79
2023/07/14 01:03:30;;;;;;;13.07;7.85;;;17.90;99.90;;;;;;4919251;29;20354;-79
2023/07/14 01:05:57;;;;;;;16.35;7.97;;;17.90;99.90;;;;;;4936004;29;20179;-78
2023/07/14 01:08:26;;;;;;;13.95;7.88;;;17.90;99.90;;;;;;4934857;29;20211;-82
2023/07/14 01:10:53;;;;;;;13.98;7.90;;;17.90;99.90;;;;;;4934828;29;20214;-83
2023/07/14 01:13:20;;;;;;;15.63;8.13;;;17.90;99.90;;;;;;4936283;29;20214;-78
2023/07/14 01:15:47;;;;;;;14.55;7.50;;;17.90;99.90;;;;;;4936254;29;20215;-78
2023/07/14 01:18:13;;;;;;;16.05;7.82;;;17.90;99.90;;;;;;4935660;29;20219;-83
2023/07/14 01:20:39;;;;;;;13.88;8.23;;;17.90;99.90;;;;;;4919412;29;20176;-79
2023/07/14 01:23:21;;;;;;;13.55;7.60;;;17.90;99.90;;;;;;4919126;29;20207;-79
2023/07/14 01:25:59;;;;;;;15.52;8.25;;;17.90;99.90;;;;;;4934566;29;20183;-78
2023/07/14 01:28:25;;;;;;;14.60;7.82;;;17.80;99.90;;;;;;4919020;29;20191;-78
2023/07/14 01:30:51;;;;;;;16.52;9.10;;;17.80;99.90;;;;;;4935891;29;20187;-78
2023/07/14 01:33:18;;;;;;;17.38;8.38;;;17.80;99.90;;;;;;4903952;29;20626;-78
2023/07/14 01:35:48;;;;;;;17.08;8.48;;;17.80;99.90;;;;;;4934674;28;20191;-78
2023/07/14 01:38:15;;;;;;;13.98;8.13;;;17.70;99.90;;;;;;4934999;29;20277;-79
2023/07/14 01:40:41;;;;;;;15.07;8.05;;;17.70;99.90;;;;;;4934750;29;20250;-78
2023/07/14 01:43:09;;;;;;;16.17;8.23;;;17.70;99.90;;;;;;4934697;29;20215;-78
2023/07/14 01:45:57;;;;;;;14.15;8.50;;;17.70;99.90;;;;;;4940021;29;20271;-78
2023/07/14 01:48:50;;;;;;;12.10;7.47;;;17.70;99.90;;;;;;4938371;29;20179;-78
2023/07/14 01:51:17;;;;;;;16.95;8.38;;;17.70;99.90;;;;;;4938478;29;20542;-79
2023/07/14 01:53:55;;;;;;;15.82;8.40;;;17.70;99.90;;;;;;4939315;29;20184;-78
2023/07/14 01:56:24;;;;;;;13.68;8.63;;;17.60;99.90;;;;;;4938098;28;20191;-79
2023/07/14 01:58:59;;;;;;;20.88;8.88;;;17.60;99.90;;;;;;4938296;29;20234;-78
2023/07/14 02:01:27;;;;;;;13.98;8.85;;;17.60;99.90;;;;;;4939729;29;20242;-78
2023/07/14 02:03:55;;;;;;;14.32;8.73;;;17.60;99.90;;;;;;4939402;29;20223;-80
2023/07/14 02:06:23;;;;;;;14.63;8.77;;;17.60;99.90;;;;;;4921680;29;20187;-77
2023/07/14 02:08:50;;;;;;;15.27;9.15;;;17.60;99.90;;;;;;4939254;29;20191;-77
2023/07/14 02:11:19;;;;;;;13.68;9.27;;;17.50;99.90;;;;;;4922019;29;20211;-76
2023/07/14 02:13:46;;;;;;;15.85;9.50;;;17.60;99.90;;;;;;4937354;29;20190;-78
2023/07/14 02:16:15;;;;;;;17.55;9.48;;;17.60;99.90;;;;;;4937815;29;20191;-78
2023/07/14 02:18:42;;;;;;;17.35;9.85;;;17.50;99.90;;;;;;4939183;29;20255;-78
2023/07/14 02:21:10;;;;;;;18.38;10.30;;;17.50;99.90;;;;;;4921963;29;20194;-78
2023/07/14 02:23:39;;;;;;;13.45;9.45;;;17.40;99.90;;;;;;4939162;29;20215;-79
2023/07/14 02:26:30;;;;;;;17.45;9.73;;;17.50;99.90;;;;;;4938463;29;20222;-80
2023/07/14 02:28:57;;;;;;;16.50;10.35;;;17.40;99.90;;;;;;4938022;28;20181;-77
2023/07/14 02:31:23;;;;;;;13.90;8.45;;;17.40;99.90;;;;;;4938738;29;20644;-78
2023/07/14 02:33:51;;;;;;;17.67;9.80;;;17.40;99.90;;;;;;4937394;28;20194;-78
2023/07/14 02:36:42;;;;;;;18.15;9.65;;;17.40;99.90;;;;;;4937411;29;20186;-78
2023/07/14 02:39:08;;;;;;;13.65;8.95;;;17.40;99.90;;;;;;4937500;29;20167;-79
2023/07/14 02:41:41;;;;;;;14.93;9.65;;;17.40;99.90;;;;;;4937206;29;20187;-79
2023/07/14 02:44:11;;;;;;;18.35;10.02;;;17.40;99.90;;;;;;4938342;29;20222;-77
2023/07/14 02:47:09;;;;;;;14.48;9.88;;;17.40;99.90;;;;;;4936978;29;20179;-78
2023/07/14 02:49:35;;;;;;;14.20;10.38;;;17.30;99.90;;;;;;4933044;29;20639;-77
2023/07/14 02:52:01;;;;;;;16.52;10.90;;;17.30;99.90;;;;;;4937131;29;20187;-77
2023/07/14 02:54:27;;;;;;;16.75;10.00;;;17.30;99.90;;;;;;4921633;29;20187;-77
2023/07/14 02:56:52;;;;;;;21.15;11.55;;;17.30;99.90;;;;;;4936047;29;20199;-81
2023/07/14 02:59:19;;;;;;;16.60;10.52;;;17.30;99.90;;;;;;4938760;29;20175;-78
2023/07/14 03:01:44;;;;;;;16.20;10.70;;;17.30;99.90;;;;;;4938333;29;20274;-77
2023/07/14 03:04:11;;;;;;;18.42;9.35;;;17.30;99.90;;;;;;4937798;29;20270;-79
2023/07/14 03:06:36;;;;;;;12.02;9.30;;;17.30;99.90;;;;;;4937505;29;20179;-78
2023/07/14 03:09:02;;;;;;;16.90;10.30;;;17.30;99.90;;;;;;4937944;29;20175;-79
2023/07/14 03:11:28;;;;;;;15.82;10.32;;;17.30;99.90;;;;;;4936415;29;20187;-78
2023/07/14 03:13:54;;;;;;;17.42;10.30;;;17.30;99.90;;;;;;4936991;28;20202;-79
2023/07/14 03:16:20;;;;;;;15.60;10.38;;;17.30;99.90;;;;;;4937461;29;20222;-78
2023/07/14 03:18:45;;;;;;;17.85;10.50;;;17.30;99.90;;;;;;4938240;29;20171;-79
2023/07/14 03:21:12;;;;;;;18.15;10.18;;;17.30;99.90;;;;;;4936471;29;20179;-78
2023/07/14 03:23:38;;;;;;;16.90;10.80;;;17.30;99.90;;;;;;4937200;29;20220;-79
2023/07/14 03:26:07;;;;;;;15.68;10.88;;;17.20;99.90;;;;;;4920243;29;20229;-82
2023/07/14 03:28:34;;;;;;;16.77;10.77;;;17.20;99.90;;;;;;4937836;29;20191;-81
2023/07/14 03:31:03;;;;;;;20.83;11.98;;;17.20;99.90;;;;;;4936744;29;20637;-78
2023/07/14 03:33:30;;;;;;;15.15;10.73;;;17.20;99.90;;;;;;4935984;29;20215;-79
2023/07/14 03:36:01;;;;;;;17.25;10.65;;;17.10;99.90;;;;;;4937437;29;20187;-78
2023/07/14 03:38:27;;;;;;;14.50;10.48;;;17.10;99.90;;;;;;4937349;29;20180;-79
2023/07/14 03:40:52;;;;;;;18.17;10.70;;;17.10;99.90;;;;;;4935919;29;20190;-78
2023/07/14 03:43:18;;;;;;;17.73;10.85;;;17.10;99.90;;;;;;4937147;29;20207;-78
2023/07/14 03:45:44;;;;;;;18.58;10.80;;;17.10;99.90;;;;;;4937849;29;20515;-78
2023/07/14 03:48:10;;;;;;;21.42;10.50;;;17.10;99.90;;;;;;4937787;29;20183;-79
2023/07/14 03:50:37;;;;;;;16.15;9.88;;;17.00;99.90;;;;;;4936047;29;20192;-78
2023/07/14 03:53:03;;;;;;;17.30;10.23;;;17.00;99.90;;;;;;4920124;29;20231;-80
2023/07/14 03:55:31;;;;;;;18.73;9.68;;;17.00;99.90;;;;;;4935840;29;20602;-78
2023/07/14 03:57:57;;;;;;;15.95;10.07;;;17.00;99.90;;;;;;4919910;29;20274;-78
2023/07/14 04:00:23;;;;;;;13.50;9.30;;;17.00;99.90;;;;;;4935628;29;20336;-79
2023/07/14 04:02:49;;;;;;;16.73;8.98;;;17.00;99.90;;;;;;4935956;29;20326;-77
2023/07/14 04:05:15;;;;;;;15.32;9.18;;;17.00;99.90;;;;;;4935906;29;20632;-78
2023/07/14 04:07:43;;;;;;;16.48;9.45;;;17.00;99.90;;;;;;4935166;29;20199;-79
2023/07/14 04:10:10;;;;;;;18.52;9.60;;;17.00;99.90;;;;;;4919762;29;20208;-80
2023/07/14 04:12:36;;;;;;;17.73;9.05;;;17.00;99.90;;;;;;4936574;29;20184;-78
2023/07/14 04:15:03;;;;;;;16.00;8.50;;;16.90;99.90;;;;;;4935928;29;20183;-79
2023/07/14 04:17:30;;;;;;;13.18;7.82;;;16.90;99.90;;;;;;4936737;29;20262;-79
2023/07/14 04:19:56;;;;;;;16.42;8.40;;;17.00;99.90;;;;;;4936793;29;20651;-79
2023/07/14 04:22:22;;;;;;;14.77;7.68;;;16.90;99.90;;;;;;4936297;29;20187;-82
2023/07/14 04:24:48;;;;;;;14.48;7.53;;;17.00;99.90;;;;;;4935478;29;20631;-79
2023/07/14 04:27:14;;;;;;;15.63;7.30;;;17.00;99.90;;;;;;4935322;29;20258;-80
2023/07/14 04:29:40;;;;;;;13.68;7.90;;;17.00;99.90;;;;;;4936474;29;20175;-81
2023/07/14 04:32:07;;;;;;;18.27;6.43;;;17.00;99.90;;;;;;4935275;29;20643;-80
2023/07/14 04:34:34;;;;;;;15.32;6.93;;;17.00;99.90;;;;;;4936826;29;20190;-81
2023/07/14 04:37:00;;;;;;;10.13;6.40;;;17.00;99.90;;;;;;4936080;29;20191;-80
2023/07/14 04:39:26;;;;;;;15.63;6.80;;;17.00;99.90;;;;;;4936903;29;20214;-80
2023/07/14 04:41:54;;;;;;;13.10;6.80;;;17.00;99.90;;;;;;4936324;29;20232;-80
2023/07/14 04:44:20;;;;;;;11.70;6.07;;;17.00;99.90;;;;;;4935917;29;20270;-79
2023/07/14 04:46:46;;;;;;;16.42;6.82;;;17.10;99.90;;;;;;4936271;29;20190;-78
2023/07/14 04:49:12;;;;;;;12.85;5.65;;;17.00;99.90;;;;;;4919610;29;20179;-78
2023/07/14 04:51:39;;;;;;;12.35;6.05;;;17.10;99.90;;;;;;4936780;29;20190;-81
2023/07/14 04:54:05;;;;;;;14.20;5.65;;;17.10;99.90;;;;;;4937971;29;20211;-80
2023/07/14 04:56:34;;;;;;;10.73;5.22;;;17.10;99.90;;;;;;4940408;29;20545;-79
2023/07/14 04:59:00;;;;;;;16.92;5.45;;;17.10;99.90;;;;;;4939334;29;20686;-79
2023/07/14 05:01:28;;;;;;;14.18;5.70;;;17.10;99.90;;;;;;4924686;29;20256;-80
2023/07/14 05:03:54;;;;;;;13.65;5.55;;;17.10;99.90;;;;;;4938233;29;20218;-78
2023/07/14 05:06:20;;;;;;;14.35;5.50;;;17.20;99.90;;;;;;4938674;29;20179;-79
2023/07/14 05:08:46;;;;;;;16.75;5.45;;;17.20;99.90;;;;;;4939668;29;20329;-78
2023/07/14 05:11:11;;;;;;;11.38;5.15;;;17.20;99.90;;;;;;4920638;29;20266;-78
2023/07/14 05:13:37;;;;;;;11.02;4.65;;;17.20;99.90;;;;;;4937145;29;20631;-76
2023/07/14 05:16:03;;;;;;;12.40;5.22;;;17.20;99.90;;;;;;4920073;29;20600;-78
2023/07/14 05:18:29;;;;;;;15.10;5.47;;;17.20;99.90;;;;;;4935774;29;20194;-77
2023/07/14 05:21:06;;;;;;;17.92;5.45;;;17.30;99.90;;;;;;4940593;29;20226;-77
2023/07/14 05:23:33;;;;;;;16.13;5.53;;;17.30;99.90;;;;;;4943192;29;20195;-85
2023/07/14 05:25:59;;;;;;;15.70;4.90;;;17.40;99.90;;;;;;4938771;29;20285;-82
2023/07/14 05:28:25;;;;;;;17.33;5.72;;;17.40;99.90;;;;;;4938585;29;20194;-81
2023/07/14 05:30:52;;;;;;;14.68;5.88;;;17.40;99.90;;;;;;4938494;29;20201;-78
2023/07/14 05:33:19;;;;;;;11.10;5.43;;;17.40;99.90;;;;;;4938924;29;20210;-78
2023/07/14 05:35:45;;;;;;;14.00;5.20;;;17.50;99.90;;;;;;4940156;29;20191;-78
2023/07/14 05:38:11;;;;;;;13.57;5.25;;;17.50;99.90;;;;;;4939893;29;20190;-78
2023/07/14 05:40:37;;;;;;;10.20;4.57;;;17.60;99.90;;;;;;4922915;29;20187;-80
2023/07/14 05:43:03;;;;;;;13.25;5.10;;;17.60;99.90;;;;;;4922217;29;20698;-82
2023/07/14 05:45:29;;;;;;;11.38;4.90;;;17.60;99.90;;;;;;4938002;29;20279;-79
2023/07/14 05:47:56;;;;;;;11.27;4.88;;;17.70;99.90;;;;;;4938777;29;20644;-83
2023/07/14 05:50:21;;;;;;;11.02;4.65;;;17.70;99.90;;;;;;4938209;29;20202;-80
2023/07/14 05:52:47;;;;;;;12.38;4.22;;;17.70;99.90;;;;;;4938386;29;20184;-79
2023/07/14 05:55:14;;;;;;;13.45;4.20;;;17.80;99.90;;;;;;4939125;29;20231;-79
2023/07/14 05:57:40;;;;;;;11.07;4.72;;;17.80;99.90;;;;;;4922428;29;20523;-79
2023/07/14 06:00:13;;;;;;;12.63;4.63;;;17.80;99.90;;;;;;4938583;29;20619;-79
2023/07/14 06:02:40;;;;;;;10.85;4.38;;;17.90;99.90;;;;;;4939341;29;20225;-79
2023/07/14 06:05:08;;;;;;;8.90;4.40;;;17.90;99.90;;;;;;4938719;29;20193;-80
2023/07/14 06:07:34;;;;;;;9.30;4.22;;;17.90;99.90;;;;;;4938862;29;20179;-80
2023/07/14 06:10:00;;;;;;;14.82;4.07;;;18.00;99.90;;;;;;4938043;29;20191;-82
2023/07/14 06:12:26;;;;;;;13.07;4.38;;;18.00;99.90;;;;;;4938724;29;20180;-78
2023/07/14 06:14:52;;;;;;;10.50;4.57;;;18.00;99.90;;;;;;4939510;29;20172;-80
2023/07/14 06:17:19;;;;;;;10.80;4.40;;;18.10;99.90;;;;;;4937824;29;20638;-79
2023/07/14 06:19:45;;;;;;;11.65;4.60;;;18.10;99.90;;;;;;4938711;29;20188;-78
2023/07/14 06:22:10;;;;;;;10.73;4.63;;;18.10;99.90;;;;;;4939468;29;20332;-79
2023/07/14 06:24:36;;;;;;;7.78;3.92;;;18.20;99.90;;;;;;4937298;29;20241;-78
2023/07/14 06:27:05;;;;;;;13.13;4.07;;;18.20;99.90;;;;;;4906823;29;20266;-80
2023/07/14 06:29:32;;;;;;;12.00;4.07;;;18.30;99.90;;;;;;4939269;29;20640;-80
2023/07/14 06:31:59;;;;;;;9.60;3.83;;;18.30;99.90;;;;;;4937621;29;20175;-79
2023/07/14 06:34:25;;;;;;;14.23;4.30;;;18.30;99.90;;;;;;4922022;29;20215;-81
2023/07/14 06:36:51;;;;;;;10.00;4.20;;;18.40;99.90;;;;;;4937727;29;20190;-80
2023/07/14 06:39:22;;;;;;;12.00;4.07;;;18.40;99.90;;;;;;4938699;29;20655;-79
2023/07/14 06:41:47;;;;;;;9.82;4.25;;;18.50;99.90;;;;;;4939476;29;20160;-79
2023/07/14 06:44:13;;;;;;;12.07;4.80;;;18.50;99.90;;;;;;4938821;29;20229;-79
2023/07/14 06:46:39;;;;;;;16.10;4.85;;;18.60;99.90;;;;;;4921395;29;20187;-79
2023/07/14 06:49:05;;;;;;;12.98;4.47;;;18.60;99.90;;;;;;4921693;29;20208;-80
2023/07/14 06:51:31;;;;;;;11.98;4.47;;;18.70;99.90;;;;;;4938643;29;20234;-80
2023/07/14 06:53:56;;;;;;;17.08;4.82;;;18.70;99.90;;;;;;4939498;29;20274;-79
2023/07/14 06:56:23;;;;;;;13.80;4.88;;;18.70;99.90;;;;;;4938145;29;20221;-80
2023/07/14 06:58:49;;;;;;;14.32;4.13;;;18.80;99.90;;;;;;4938782;29;20266;-82
2023/07/14 07:01:18;;;;;;;13.82;5.28;;;18.80;99.90;;;;;;4937548;29;20627;-79
2023/07/14 07:03:44;;;;;;;8.68;3.88;;;18.90;99.90;;;;;;4939807;29;20210;-79
2023/07/14 07:06:10;;;;;;;9.50;4.10;;;18.90;99.90;;;;;;4938208;29;20525;-81
2023/07/14 07:08:36;;;;;;;14.52;4.38;;;19.00;99.90;;;;;;4938213;29;20183;-80
2023/07/14 07:11:02;;;;;;;11.13;4.50;;;19.00;99.90;;;;;;4938458;29;20191;-80
2023/07/14 07:13:28;;;;;;;11.48;3.70;;;19.10;99.90;;;;;;4939270;29;20183;-83
2023/07/14 07:15:53;;;;;;;15.25;4.15;;;19.20;99.90;;;;;;4941920;29;20191;-79
2023/07/14 07:18:25;;;;;;;10.30;3.75;;;19.20;99.90;;;;;;4922205;29;20191;-80
2023/07/14 07:20:52;;;;;;;13.20;4.45;;;19.30;99.90;;;;;;4923078;29;20196;-81
2023/07/14 07:23:18;;;;;;;7.63;3.70;;;19.40;99.90;;;;;;4922801;29;20218;-80
2023/07/14 07:25:48;;;;;;;12.23;5.07;;;19.40;99.90;;;;;;4938501;29;20243;-81
2023/07/14 07:28:14;;;;;;;12.82;3.97;;;19.50;99.90;;;;;;4938866;29;20194;-82
2023/07/14 07:30:40;;;;;;;12.55;4.13;;;19.60;99.90;;;;;;4938319;29;20184;-76
2023/07/14 07:33:06;;;;;;;10.48;4.20;;;19.60;99.90;;;;;;4905902;29;20191;-83
2023/07/14 07:35:37;;;;;;;13.57;4.38;;;19.70;99.90;;;;;;4938679;29;20214;-83
2023/07/14 07:38:03;;;;;;;8.10;4.38;;;19.70;99.90;;;;;;4938272;29;20258;-83
2023/07/14 07:40:29;;;;;;;6.88;4.30;;;19.80;99.90;;;;;;4937106;28;20613;-84
2023/07/14 07:42:55;;;;;;;10.18;4.30;;;19.90;99.90;;;;;;4936785;29;20215;-80
2023/07/14 07:45:21;;;;;;;9.00;4.00;;;20.00;99.90;;;;;;4938116;29;20563;-80
2023/07/14 07:47:47;;;;;;;9.85;4.10;;;20.00;99.90;;;;;;4939375;29;20179;-78
2023/07/14 07:50:13;;;;;;;8.90;3.60;;;20.10;99.90;;;;;;4937113;29;20183;-77
2023/07/14 07:52:38;;;;;;;11.98;3.80;;;20.20;99.90;;;;;;4936647;29;20182;-79
2023/07/14 07:55:05;;;;;;;6.53;3.60;;;20.30;99.90;;;;;;4936159;29;20183;-79
2023/07/14 07:57:31;;;;;;;10.73;3.08;;;20.30;99.90;;;;;;4936270;29;20191;-77
2023/07/14 07:59:57;;;;;;;10.63;3.70;;;20.30;99.90;;;;;;4937713;29;20185;-78
2023/07/14 08:02:23;;;;;;;12.85;4.15;;;20.40;99.90;;;;;;4920840;29;20192;-80
2023/07/14 08:04:49;;;;;;;9.25;4.38;;;20.50;99.90;;;;;;4921032;29;20183;-78
2023/07/14 08:07:16;;;;;;;12.25;3.65;;;20.60;99.90;;;;;;4937007;28;20235;-79
2023/07/14 08:09:43;;;;;;;12.18;4.07;;;20.70;99.90;;;;;;4938347;28;20210;-79
2023/07/14 08:12:09;;;;;;;10.70;4.03;;;20.70;99.90;;;;;;4936495;29;20183;-77
2023/07/14 08:14:55;;;;;;;8.82;4.70;;;20.70;99.90;;;;;;4920528;29;20179;-78
2023/07/14 08:17:27;;;;;;;9.48;4.50;;;20.80;99.90;;;;;;4938593;29;20222;-79
2023/07/14 08:19:53;;;;;;;10.25;4.97;;;20.80;99.90;;;;;;4920534;29;20682;-78
2023/07/14 08:22:21;;;;;;;9.15;5.40;;;20.80;99.90;;;;;;4937288;29;20546;-79
2023/07/14 08:24:47;;;;;;;11.18;5.55;;;20.90;99.90;;;;;;4937388;29;20202;-78
2023/07/14 08:27:14;;;;;;;7.43;4.20;;;21.00;99.90;;;;;;4920025;29;20235;-78
2023/07/14 08:29:41;;;;;;;8.60;5.00;;;21.10;99.90;;;;;;4937271;29;20620;-78
2023/07/14 08:32:07;;;;;;;9.07;5.18;;;21.10;99.90;;;;;;4919737;29;20202;-80
2023/07/14 08:34:33;;;;;;;8.48;4.72;;;21.20;99.90;;;;;;4935830;29;20346;-80
2023/07/14 08:36:59;;;;;;;7.50;4.18;;;21.20;99.90;;;;;;4936638;29;20261;-80
2023/07/14 08:39:26;;;;;;;8.00;4.60;;;21.30;99.90;;;;;;4935537;29;20616;-79
2023/07/14 08:42:04;;;;;;;9.15;5.30;;;21.30;99.90;;;;;;4936969;29;20187;-81
2023/07/14 08:44:39;;;;;;;9.63;4.20;;;21.30;99.90;;;;;;4936125;29;20199;-79
2023/07/14 08:47:29;;;;;;;12.90;4.13;;;21.40;99.90;;;;;;4919698;29;20247;-80
2023/07/14 08:50:11;;;;;;;7.30;3.05;;;21.50;99.90;;;;;;4920837;29;20283;-80
2023/07/14 08:52:39;;;;;;;8.48;3.20;;;21.70;99.90;;;;;;4936332;29;20171;-80
2023/07/14 08:55:10;;;;;;;6.93;3.33;;;21.70;99.90;;;;;;4934836;29;20234;-81
2023/07/14 08:57:49;;;;;;;8.93;3.17;;;21.80;99.90;;;;;;4919782;29;20179;-80
2023/07/14 09:00:25;;;;;;;4.75;3.22;;;21.90;99.90;;;;;;4920322;29;20242;-80
2023/07/14 09:03:06;;;;;;;8.23;3.53;;;22.00;99.90;;;;;;4935458;29;20256;-82
2023/07/14 09:05:39;;;;;;;6.93;3.70;;;22.10;99.90;;;;;;4936438;29;20166;-81
2023/07/14 09:08:08;;;;;;;11.50;3.72;;;22.10;99.90;;;;;;4935108;29;20250;-80
2023/07/14 09:10:47;;;;;;;5.60;3.65;;;22.20;99.90;;;;;;4919688;29;20180;-80
2023/07/14 09:13:30;;;;;;;5.05;3.00;;;22.30;99.90;;;;;;4936204;29;20189;-80
2023/07/14 09:15:56;;;;;;;7.03;3.13;;;22.40;99.90;;;;;;4920163;29;20183;-79
2023/07/14 09:18:49;;;;;;;6.20;3.25;;;22.50;99.90;;;;;;4903501;29;20610;-81
2023/07/14 09:21:23;;;;;;;6.32;3.28;;;22.70;99.90;;;;;;4936321;29;20159;-81
2023/07/14 09:24:10;;;;;;;5.00;2.20;;;22.70;99.80;;;;;;4936405;29;20213;-83
2023/07/14 09:26:54;;;;;;;4.97;2.40;;;22.90;99.20;;;;;;4935132;29;20231;-81
2023/07/14 09:29:40;;;;;;;7.13;2.90;;;22.90;98.60;;;;;;4935988;29;20191;-81
2023/07/14 09:32:21;;;;;;;6.70;2.63;;;23.00;98.20;;;;;;4934413;29;20172;-80
2023/07/14 09:34:56;;;;;;;5.80;3.35;;;23.00;97.60;;;;;;4934821;28;20205;-80
2023/07/14 09:37:48;;;;;;;6.80;2.85;;;23.00;97.10;;;;;;4936120;29;20159;-80
2023/07/14 09:40:34;;;;;;;6.75;2.58;;;23.10;96.70;;;;;;4919066;29;20270;-81
2023/07/14 09:43:01;;;;;;;5.80;2.42;;;23.00;96.20;;;;;;4918759;29;20203;-79
2023/07/14 09:45:32;;;;;;;8.18;2.80;;;23.00;96.20;;;;;;4934349;28;20179;-80
2023/07/14 09:48:30;;;;;;;5.57;2.80;;;23.00;95.70;;;;;;4934669;29;20281;-79
2023/07/14 09:51:04;;;;;;;7.28;2.50;;;23.00;95.60;;;;;;4935110;29;20544;-82
2023/07/14 09:53:31;;;;;;;4.90;2.65;;;23.00;95.70;;;;;;4935689;29;20171;-80
2023/07/14 09:56:06;;;;;;;4.28;2.53;;;23.10;95.60;;;;;;4934538;29;20211;-80
2023/07/14 09:58:33;;;;;;;5.13;2.60;;;23.10;95.10;;;;;;4934396;29;20249;-79
2023/07/14 10:01:06;;;;;;;5.20;2.80;;;23.10;95.00;;;;;;4934354;29;20632;-78
2023/07/14 10:03:42;;;;;;;8.98;2.83;;;23.20;94.90;;;;;;4934728;29;20226;-78
2023/07/14 10:06:16;;;;;;;7.80;3.42;;;23.20;94.80;;;;;;4937146;29;20163;-80
2023/07/14 10:08:50;;;;;;;6.47;2.92;;;23.30;95.00;;;;;;4937856;28;20327;-80
2023/07/14 10:11:37;;;;;;;7.60;2.80;;;23.40;94.90;;;;;;4939171;29;20159;-81
2023/07/14 10:14:25;;;;;;;10.80;2.90;;;23.40;94.80;;;;;;4938144;29;20210;-80
2023/07/14 10:16:53;;;;;;;9.35;3.20;;;23.40;94.90;;;;;;4938015;28;20183;-77
2023/07/14 10:19:21;;;;;;;5.88;3.17;;;23.50;95.00;;;;;;4938771;29;20203;-78
2023/07/14 10:21:57;;;;;;;4.95;2.67;;;23.60;94.90;;;;;;4905945;29;20218;-79
2023/07/14 10:24:24;;;;;;;7.05;3.08;;;23.70;94.60;;;;;;4937706;29;20274;-81
2023/07/14 10:26:53;;;;;;;7.43;3.05;;;23.70;94.40;;;;;;4921743;29;20235;-78
2023/07/14 10:29:22;;;;;;;7.15;2.67;;;23.70;94.00;;;;;;4938173;29;20203;-77
2023/07/14 10:31:56;;;;;;;7.07;3.53;;;23.80;93.70;;;;;;4921785;29;20199;-80
2023/07/14 10:34:34;;;;;;;6.63;2.65;;;23.80;93.50;;;;;;4937538;29;20237;-79
2023/07/14 10:37:04;;;;;;;4.80;2.70;;;23.90;93.40;;;;;;4938898;29;20160;-79
2023/07/14 10:39:40;;;;;;;4.22;2.70;;;24.00;92.90;;;;;;4937248;29;20207;-79
2023/07/14 10:42:11;;;;;;;5.55;2.88;;;24.00;92.40;;;;;;4937706;29;20601;-78
2023/07/14 10:44:41;;;;;;;5.85;3.03;;;24.00;92.00;;;;;;4939142;29;20219;-78
2023/07/14 10:47:18;;;;;;;5.68;2.58;;;24.10;91.50;;;;;;4938967;29;20314;-77
2023/07/14 10:49:53;;;;;;;6.13;2.88;;;24.10;91.20;;;;;;4939150;29;20179;-81
2023/07/14 10:52:27;;;;;;;5.55;2.70;;;24.20;91.10;;;;;;4937582;29;20167;-80
2023/07/14 10:54:58;;;;;;;5.40;2.70;;;24.20;91.00;;;;;;4938234;29;20178;-81
2023/07/14 10:57:36;;;;;;;7.38;3.05;;;24.30;90.90;;;;;;4921306;29;20220;-79
2023/07/14 11:00:40;;;;;;;5.32;3.00;;;24.30;90.70;;;;;;4938291;29;20179;-77
2023/07/14 11:03:22;;;;;;;4.80;2.80;;;24.30;90.60;;;;;;4925559;29;20235;-81
2023/07/14 11:06:09;;;;;;;6.00;3.15;;;24.30;90.50;;;;;;4937210;29;20247;-80
2023/07/14 11:08:35;;;;;;;6.57;3.20;;;24.20;90.80;;;;;;4937810;29;20196;-78
2023/07/14 11:11:15;;;;;;;6.07;3.10;;;24.20;90.40;;;;;;4921859;29;20230;-79
2023/07/14 11:14:14;;;;;;;9.35;3.00;;;24.20;90.30;;;;;;4921450;29;20187;-79
2023/07/14 11:16:52;;;;;;;7.82;3.17;;;24.10;90.00;;;;;;4936344;29;20156;-78
2023/07/14 11:19:27;;;;;;;5.90;3.10;;;24.00;90.30;;;;;;4937016;29;20266;-79
2023/07/14 11:22:03;;;;;;;9.55;3.35;;;23.90;90.40;;;;;;4921192;29;20707;-79
2023/07/14 11:24:44;;;;;;;7.75;3.25;;;23.90;90.60;;;;;;4937461;29;20221;-80
2023/07/14 11:27:38;;;;;;;4.60;2.92;;;23.80;90.60;;;;;;4937465;29;20683;-81
2023/07/14 11:30:34;;;;;;;6.65;3.40;;;23.90;90.80;;;;;;4937745;29;20230;-82
2023/07/14 11:33:02;;;;;;;7.63;3.30;;;23.80;90.80;;;;;;4910131;29;20648;-79
2023/07/14 11:35:31;;;;;;;7.85;3.30;;;23.90;90.60;;;;;;4936213;29;20239;-79
2023/07/14 11:38:27;;;;;;;5.15;3.13;;;23.90;90.50;;;;;;4936121;29;20238;-80
2023/07/14 11:40:54;;;;;;;5.32;3.10;;;24.00;90.60;;;;;;4936206;29;20214;-80
2023/07/14 11:43:23;;;;;;;7.65;3.28;;;24.00;90.50;;;;;;4904777;29;20222;-79
2023/07/14 11:45:58;;;;;;;4.97;2.90;;;24.10;90.20;;;;;;4937604;29;20605;-80
2023/07/14 11:48:52;;;;;;;6.13;3.00;;;24.20;89.40;;;;;;4920568;29;20182;-79
2023/07/14 11:51:20;;;;;;;6.95;2.97;;;24.30;88.60;;;;;;4932004;29;20214;-79
2023/07/14 11:54:05;;;;;;;6.40;3.10;;;24.30;88.10;;;;;;4920065;29;20661;-80
2023/07/14 11:56:38;;;;;;;7.25;3.42;;;24.30;87.90;;;;;;4935654;29;20335;-79
2023/07/14 11:59:12;;;;;;;7.53;3.10;;;24.30;88.20;;;;;;4935989;29;20163;-80
2023/07/14 12:01:47;;;;;;;5.28;3.00;;;24.30;88.40;;;;;;4936277;29;20190;-80
2023/07/14 12:04:20;;;;;;;5.72;3.00;;;24.40;87.80;;;;;;4936803;29;20349;-79
2023/07/14 12:07:09;;;;;;;5.38;3.08;;;24.50;87.80;;;;;;4936169;29;20195;-79
2023/07/14 12:09:54;;;;;;;5.55;3.05;;;24.40;87.30;;;;;;4920807;29;20202;-79
2023/07/14 12:12:20;;;;;;;6.07;2.97;;;24.40;87.40;;;;;;4923475;29;20494;-80
2023/07/14 12:14:49;;;;;;;5.28;3.05;;;24.50;87.60;;;;;;4935686;29;20182;-79
2023/07/14 12:17:36;;;;;;;4.55;3.30;;;24.50;87.40;;;;;;4935711;29;20190;-79
2023/07/14 12:20:13;;;;;;;5.03;3.20;;;24.60;87.00;;;;;;4935684;29;20628;-81
2023/07/14 12:22:44;;;;;;;5.78;3.33;;;24.60;85.50;;;;;;4919854;29;20268;-79
2023/07/14 12:25:22;;;;;;;6.38;3.20;;;24.60;84.80;;;;;;4935548;29;20179;-79
2023/07/14 12:27:53;;;;;;;7.20;3.38;;;24.60;84.60;;;;;;4935192;29;20706;-79
2023/07/14 12:30:29;;;;;;;7.55;3.25;;;24.60;85.00;;;;;;4936361;29;20183;-79
2023/07/14 12:33:01;;;;;;;6.85;3.40;;;24.60;85.10;;;;;;4935670;29;20175;-79
2023/07/14 12:35:30;;;;;;;7.20;3.75;;;24.60;85.50;;;;;;4936216;29;20175;-78
2023/07/14 12:38:14;;;;;;;6.70;3.67;;;24.50;85.50;;;;;;4935214;29;20185;-78
2023/07/14 12:40:41;;;;;;;7.13;3.50;;;24.50;85.90;;;;;;4935559;28;20179;-78
2023/07/14 12:43:13;;;;;;;5.22;3.28;;;24.40;86.10;;;;;;4935440;29;20219;-79
2023/07/14 12:45:39;;;;;;;6.30;3.30;;;24.40;86.20;;;;;;4936948;29;20172;-79
2023/07/14 12:48:06;;;;;;;6.30;3.47;;;24.30;86.70;;;;;;4919156;29;20238;-79
2023/07/14 12:50:32;;;;;;;6.65;3.10;;;24.30;86.90;;;;;;4935052;29;20183;-82
2023/07/14 12:52:59;;;;;;;5.43;3.38;;;24.30;87.10;;;;;;4936574;29;20205;-80
2023/07/14 12:55:30;;;;;;;7.47;3.78;;;24.30;87.60;;;;;;4935399;29;20178;-80
2023/07/14 12:57:56;;;;;;;6.22;3.78;;;24.30;87.40;;;;;;4936093;29;20207;-78